Time;durP1;ratioP1;P1;durP2;ratioP2;P2;SDS_P1;SDS_P2;PMS_P1;PMS_P2;Temp;Humidity;BMP_temperature;BMP_pressure;BME280_temperature;BME280_humidity;BME280_pressure;Samples;Min_cycle;Max_cycle;Signal;HPM_P1;HPM_P2
2022/08/05 00:00:26;;;;;;;5.20;4.00;;;23.70;99.90;;;;;;4968601;28;20382;-85
2022/08/05 00:02:53;;;;;;;7.78;4.30;;;23.50;99.90;;;;;;4972333;28;20387;-85
2022/08/05 00:05:20;;;;;;;4.43;4.03;;;23.40;99.90;;;;;;4956285;28;20391;-85
2022/08/05 00:07:45;;;;;;;5.28;4.35;;;23.30;99.90;;;;;;4972024;28;20481;-85
2022/08/05 00:10:11;;;;;;;6.40;4.37;;;23.20;99.90;;;;;;4955242;28;20394;-84
2022/08/05 00:12:37;;;;;;;4.68;4.10;;;23.10;99.90;;;;;;4971845;28;20385;-84
2022/08/05 00:15:04;;;;;;;5.38;4.25;;;23.00;99.90;;;;;;4954930;28;21176;-85
2022/08/05 00:17:29;;;;;;;5.88;4.45;;;22.90;99.90;;;;;;4981836;28;20791;-84
2022/08/05 00:19:55;;;;;;;5.90;4.00;;;22.80;99.90;;;;;;4973174;28;21171;-84
2022/08/05 00:22:21;;;;;;;8.77;5.63;;;22.70;99.90;;;;;;4973060;28;20401;-84
2022/08/05 00:24:46;;;;;;;7.33;5.10;;;22.60;99.90;;;;;;4979476;28;20485;-85
2022/08/05 00:27:12;;;;;;;7.32;5.57;;;22.60;99.90;;;;;;4970827;28;20429;-83
2022/08/05 00:29:38;;;;;;;6.10;5.13;;;22.70;99.90;;;;;;4958245;28;20433;-84
2022/08/05 00:32:05;;;;;;;6.32;4.93;;;22.70;99.90;;;;;;4960313;28;20498;-83
2022/08/05 00:34:31;;;;;;;6.78;4.97;;;22.80;99.90;;;;;;4953826;28;20422;-83
2022/08/05 00:36:57;;;;;;;5.45;4.63;;;22.90;99.90;;;;;;4954507;28;20379;-84
2022/08/05 00:39:23;;;;;;;6.63;4.57;;;23.00;99.90;;;;;;4954249;28;20405;-86
2022/08/05 00:41:48;;;;;;;6.80;4.63;;;22.90;99.90;;;;;;4954743;28;20418;-85
2022/08/05 00:44:14;;;;;;;7.00;4.85;;;22.90;99.90;;;;;;4972019;28;20493;-85
2022/08/05 00:46:40;;;;;;;6.70;4.30;;;22.90;99.90;;;;;;4954402;28;20387;-86
2022/08/05 00:49:05;;;;;;;5.00;4.50;;;22.90;99.90;;;;;;4964989;28;20396;-85
2022/08/05 00:51:31;;;;;;;9.37;4.87;;;22.90;99.90;;;;;;4956201;28;20393;-84
2022/08/05 00:53:57;;;;;;;7.28;4.57;;;22.90;99.90;;;;;;4971703;28;21036;-85
2022/08/05 00:56:22;;;;;;;5.20;4.53;;;22.90;99.90;;;;;;4953977;28;20418;-84
2022/08/05 00:58:48;;;;;;;5.80;4.77;;;23.00;99.90;;;;;;4971489;28;20444;-85
2022/08/05 01:01:14;;;;;;;5.78;4.68;;;23.00;99.90;;;;;;4953738;28;20391;-85
2022/08/05 01:03:40;;;;;;;7.00;4.57;;;22.90;99.90;;;;;;4982692;28;20485;-84
2022/08/05 01:06:07;;;;;;;6.68;4.53;;;22.90;99.90;;;;;;4971719;28;20390;-85
2022/08/05 01:08:33;;;;;;;5.30;4.80;;;22.80;99.90;;;;;;4953967;28;20409;-85
2022/08/05 01:11:08;;;;;;;5.13;4.63;;;22.80;99.90;;;;;;4964952;28;20394;-86
2022/08/05 01:13:37;;;;;;;6.25;4.60;;;22.80;99.90;;;;;;4972285;28;20375;-84
2022/08/05 01:16:06;;;;;;;6.57;4.57;;;22.70;99.90;;;;;;4981874;28;20438;-85
2022/08/05 01:18:36;;;;;;;7.35;4.63;;;22.70;99.90;;;;;;4953999;28;20445;-82
2022/08/05 01:21:39;;;;;;;6.30;4.65;;;22.70;99.90;;;;;;4954002;28;21287;-85
2022/08/05 01:24:33;;;;;;;5.00;4.28;;;22.70;99.90;;;;;;4953592;28;20397;-84
2022/08/05 01:27:05;;;;;;;6.25;4.43;;;22.90;99.90;;;;;;4953030;28;20410;-85
2022/08/05 01:29:39;;;;;;;4.93;4.47;;;22.90;99.90;;;;;;4953970;28;20738;-83
2022/08/05 01:32:09;;;;;;;5.90;4.10;;;22.90;99.90;;;;;;4953836;28;20526;-85
2022/08/05 01:34:41;;;;;;;6.35;4.20;;;23.00;99.90;;;;;;4980880;28;20463;-82
2022/08/05 01:37:23;;;;;;;8.67;4.90;;;23.00;99.90;;;;;;4987698;28;20444;-85
2022/08/05 01:39:53;;;;;;;5.13;4.20;;;23.10;99.90;;;;;;4971654;28;20387;-83
2022/08/05 01:42:20;;;;;;;5.18;4.20;;;23.10;99.90;;;;;;4954354;28;20402;-85
2022/08/05 01:44:48;;;;;;;8.15;4.65;;;23.10;99.90;;;;;;4963586;28;20401;-86
2022/08/05 01:47:17;;;;;;;7.55;4.53;;;23.00;99.90;;;;;;4959657;28;20401;-85
2022/08/05 01:49:44;;;;;;;5.10;4.30;;;23.10;99.90;;;;;;4953138;28;20410;-85
2022/08/05 01:52:12;;;;;;;5.93;4.40;;;23.00;99.90;;;;;;4960587;28;20393;-85
2022/08/05 01:54:48;;;;;;;7.05;4.53;;;22.90;99.90;;;;;;4972479;28;20423;-85
2022/08/05 01:57:22;;;;;;;5.22;4.03;;;22.90;99.90;;;;;;4989799;28;20458;-84
2022/08/05 01:59:50;;;;;;;5.37;4.40;;;22.90;99.90;;;;;;4990562;28;20523;-85
2022/08/05 02:02:18;;;;;;;5.25;4.50;;;22.80;99.90;;;;;;4973045;28;20393;-85
2022/08/05 02:04:45;;;;;;;4.75;4.22;;;22.80;99.90;;;;;;4978995;28;20374;-85
2022/08/05 02:07:10;;;;;;;4.57;4.18;;;22.90;99.90;;;;;;4953308;28;20387;-85
2022/08/05 02:09:36;;;;;;;5.85;4.10;;;22.90;99.90;;;;;;4968369;28;20545;-85
2022/08/05 02:12:16;;;;;;;5.00;4.50;;;22.90;99.90;;;;;;4962602;28;21046;-85
2022/08/05 02:14:46;;;;;;;5.03;4.53;;;22.90;99.90;;;;;;4963776;28;20397;-84
2022/08/05 02:17:28;;;;;;;5.85;4.15;;;22.90;99.90;;;;;;4952793;28;20415;-85
2022/08/05 02:20:01;;;;;;;5.82;4.60;;;22.90;99.90;;;;;;4970156;28;20496;-83
2022/08/05 02:22:31;;;;;;;6.15;4.57;;;23.10;99.90;;;;;;4964868;28;20391;-84
2022/08/05 02:25:05;;;;;;;6.83;4.50;;;23.00;99.90;;;;;;4952738;28;20903;-87
2022/08/05 02:27:35;;;;;;;6.93;4.43;;;23.00;99.90;;;;;;4952265;28;20469;-85
2022/08/05 02:30:02;;;;;;;6.45;4.25;;;22.90;99.90;;;;;;4971011;28;20387;-84
2022/08/05 02:32:30;;;;;;;4.65;4.22;;;22.90;99.90;;;;;;4976375;28;20410;-84
2022/08/05 02:35:02;;;;;;;4.68;4.05;;;22.80;99.90;;;;;;4989341;28;20381;-85
2022/08/05 02:37:32;;;;;;;5.10;4.05;;;22.90;99.90;;;;;;4962593;28;20908;-85
2022/08/05 02:39:59;;;;;;;5.07;4.20;;;22.90;99.90;;;;;;4969736;28;20386;-84
2022/08/05 02:42:26;;;;;;;4.70;4.15;;;23.00;99.90;;;;;;4957081;28;20760;-85
2022/08/05 02:44:52;;;;;;;5.38;4.50;;;23.00;99.90;;;;;;4966871;28;20392;-85
2022/08/05 02:47:20;;;;;;;5.63;4.47;;;22.90;99.90;;;;;;4986401;28;20417;-85
2022/08/05 02:49:47;;;;;;;5.13;4.10;;;22.80;99.90;;;;;;4976608;28;20385;-85
2022/08/05 02:52:19;;;;;;;7.15;4.47;;;22.80;99.90;;;;;;4970087;28;20371;-86
2022/08/05 02:54:46;;;;;;;5.97;3.90;;;22.90;99.90;;;;;;4978799;28;20385;-84
2022/08/05 02:57:15;;;;;;;4.07;3.73;;;22.80;99.90;;;;;;4977615;28;20386;-84
2022/08/05 02:59:43;;;;;;;5.28;4.32;;;22.80;99.90;;;;;;4971985;28;20421;-84
2022/08/05 03:02:12;;;;;;;5.82;4.07;;;22.90;99.90;;;;;;4972241;28;20472;-83
2022/08/05 03:04:38;;;;;;;5.82;3.92;;;22.90;99.90;;;;;;4972593;28;20424;-85
2022/08/05 03:07:05;;;;;;;5.60;4.37;;;22.90;99.90;;;;;;4971867;28;20385;-85
2022/08/05 03:09:31;;;;;;;6.35;3.85;;;22.90;99.90;;;;;;4969578;28;20413;-85
2022/08/05 03:11:57;;;;;;;6.07;4.80;;;22.90;99.90;;;;;;4981756;28;20723;-84
2022/08/05 03:14:23;;;;;;;6.20;3.80;;;23.00;99.90;;;;;;4981683;28;20392;-84
2022/08/05 03:16:48;;;;;;;4.68;4.18;;;23.00;99.90;;;;;;4970642;28;20889;-84
2022/08/05 03:19:14;;;;;;;5.63;4.23;;;22.90;99.90;;;;;;4969494;28;20896;-84
2022/08/05 03:21:39;;;;;;;4.13;3.73;;;22.90;99.90;;;;;;4973643;28;20772;-85
2022/08/05 03:24:06;;;;;;;5.15;3.97;;;22.90;99.90;;;;;;4955965;28;20485;-85
2022/08/05 03:26:32;;;;;;;4.53;4.13;;;23.00;99.90;;;;;;4955722;28;20391;-84
2022/08/05 03:28:57;;;;;;;3.97;3.60;;;22.90;99.90;;;;;;4955696;28;20386;-85
2022/08/05 03:31:25;;;;;;;4.80;3.67;;;22.90;99.90;;;;;;4964049;28;20389;-84
2022/08/05 03:33:51;;;;;;;5.57;4.20;;;22.90;99.90;;;;;;4957243;28;20390;-86
2022/08/05 03:36:17;;;;;;;5.43;4.50;;;22.80;99.90;;;;;;4962062;28;20428;-85
2022/08/05 03:38:42;;;;;;;4.93;3.80;;;22.70;99.90;;;;;;4978304;28;20403;-86
2022/08/05 03:41:08;;;;;;;5.28;3.83;;;22.80;99.90;;;;;;4955557;28;20777;-85
2022/08/05 03:43:34;;;;;;;5.28;4.45;;;22.70;99.90;;;;;;4972706;28;20415;-85
2022/08/05 03:46:00;;;;;;;4.70;3.80;;;22.60;99.90;;;;;;4972602;28;20379;-84
2022/08/05 03:48:26;;;;;;;6.32;4.05;;;22.60;99.90;;;;;;4956165;28;20390;-83
2022/08/05 03:51:13;;;;;;;4.40;3.80;;;22.50;99.90;;;;;;4976320;28;20395;-85
2022/08/05 03:53:45;;;;;;;8.48;3.83;;;22.60;99.90;;;;;;4969720;28;20389;-85
2022/08/05 03:56:28;;;;;;;6.25;4.10;;;22.60;99.90;;;;;;4972283;28;20763;-85
2022/08/05 03:58:59;;;;;;;4.65;4.25;;;22.60;99.90;;;;;;4954845;28;20437;-84
2022/08/05 04:01:29;;;;;;;5.65;3.88;;;22.60;99.90;;;;;;4979039;28;20921;-83
2022/08/05 04:03:57;;;;;;;4.65;3.70;;;22.60;99.90;;;;;;4983201;28;20395;-84
2022/08/05 04:06:23;;;;;;;4.47;4.07;;;22.70;99.90;;;;;;4954707;28;20888;-85
2022/08/05 04:08:48;;;;;;;8.48;4.25;;;22.70;99.90;;;;;;4954966;28;20433;-84
2022/08/05 04:11:15;;;;;;;6.20;4.25;;;22.60;99.90;;;;;;4976055;28;20493;-84
2022/08/05 04:13:41;;;;;;;7.07;4.40;;;22.70;99.90;;;;;;4962094;28;20394;-85
2022/08/05 04:16:12;;;;;;;9.38;4.63;;;22.70;99.90;;;;;;4954523;28;20745;-84
2022/08/05 04:18:38;;;;;;;5.00;3.80;;;22.80;99.90;;;;;;4972356;28;20430;-85
2022/08/05 04:21:06;;;;;;;6.90;3.92;;;22.80;99.90;;;;;;4971781;28;20979;-84
2022/08/05 04:23:34;;;;;;;4.97;3.95;;;22.80;99.90;;;;;;4971598;28;20392;-84
2022/08/05 04:26:00;;;;;;;4.60;3.30;;;22.90;99.90;;;;;;4973730;28;20381;-85
2022/08/05 04:28:26;;;;;;;3.87;3.47;;;23.00;99.90;;;;;;4966289;28;20402;-86
2022/08/05 04:30:51;;;;;;;3.80;3.40;;;23.20;99.90;;;;;;4986272;28;20376;-85
2022/08/05 04:33:17;;;;;;;5.00;4.00;;;23.40;99.90;;;;;;4972087;28;21085;-85
2022/08/05 04:35:43;;;;;;;5.35;3.50;;;23.30;99.90;;;;;;4955096;28;20391;-84
2022/08/05 04:38:09;;;;;;;5.37;3.93;;;23.30;99.90;;;;;;4971662;28;20919;-84
2022/08/05 04:40:36;;;;;;;4.07;3.50;;;23.30;99.90;;;;;;4954382;28;20387;-85
2022/08/05 04:43:03;;;;;;;3.83;3.42;;;23.50;99.90;;;;;;4953993;28;20793;-84
2022/08/05 04:45:28;;;;;;;5.97;4.03;;;23.50;99.90;;;;;;4967414;28;20398;-84
2022/08/05 04:48:12;;;;;;;5.40;4.05;;;23.70;99.90;;;;;;4983934;28;20408;-85
2022/08/05 04:50:45;;;;;;;5.68;4.07;;;23.80;99.90;;;;;;4971434;28;20476;-86
2022/08/05 04:53:12;;;;;;;5.90;3.97;;;23.90;99.90;;;;;;4959337;28;20854;-85
2022/08/05 04:55:38;;;;;;;6.95;3.95;;;24.00;99.90;;;;;;4972319;28;20716;-84
2022/08/05 04:58:05;;;;;;;4.65;4.00;;;23.90;99.90;;;;;;4968520;28;20410;-84
2022/08/05 05:00:32;;;;;;;6.97;4.10;;;23.90;99.90;;;;;;4983146;28;20402;-85
2022/08/05 05:02:58;;;;;;;8.55;4.35;;;23.90;99.90;;;;;;4990521;28;20377;-84
2022/08/05 05:05:24;;;;;;;11.73;4.30;;;23.90;99.90;;;;;;4955846;28;20813;-85
2022/08/05 05:07:50;;;;;;;6.20;4.27;;;23.90;99.90;;;;;;4986722;28;20501;-84
2022/08/05 05:10:16;;;;;;;4.25;3.85;;;23.80;99.90;;;;;;4954524;28;20403;-84
2022/08/05 05:12:42;;;;;;;4.20;3.80;;;23.70;99.90;;;;;;4973563;28;20405;-84
2022/08/05 05:15:08;;;;;;;5.18;4.10;;;23.70;99.90;;;;;;4972656;28;20714;-83
2022/08/05 05:17:38;;;;;;;5.18;4.25;;;23.60;99.90;;;;;;4956231;28;20414;-84
2022/08/05 05:20:05;;;;;;;5.93;4.28;;;23.60;99.90;;;;;;4979688;28;20414;-84
2022/08/05 05:22:31;;;;;;;6.78;4.15;;;23.50;99.90;;;;;;4971344;28;20632;-84
2022/08/05 05:24:57;;;;;;;4.43;4.00;;;23.50;99.90;;;;;;4971904;28;20378;-84
2022/08/05 05:27:22;;;;;;;4.82;4.10;;;23.60;99.90;;;;;;4958739;28;20924;-84
2022/08/05 05:29:48;;;;;;;7.13;3.87;;;23.70;99.90;;;;;;4963619;28;20383;-84
2022/08/05 05:32:13;;;;;;;5.00;4.00;;;23.80;99.90;;;;;;4991245;28;20401;-84
2022/08/05 05:34:39;;;;;;;5.63;4.35;;;23.90;99.90;;;;;;4960975;28;20474;-84
2022/08/05 05:37:05;;;;;;;6.07;4.33;;;23.90;99.90;;;;;;4986146;28;20401;-83
2022/08/05 05:39:30;;;;;;;4.87;3.83;;;23.80;99.90;;;;;;4962547;28;20397;-84
2022/08/05 05:41:56;;;;;;;5.82;4.10;;;23.70;99.90;;;;;;4973348;28;20388;-85
2022/08/05 05:44:21;;;;;;;4.33;3.87;;;23.50;99.90;;;;;;4967056;28;20385;-83
2022/08/05 05:46:47;;;;;;;4.47;3.75;;;23.50;99.90;;;;;;4982953;28;20387;-84
2022/08/05 05:49:13;;;;;;;5.60;4.30;;;23.30;99.90;;;;;;4982463;28;20395;-85
2022/08/05 05:51:38;;;;;;;6.87;3.73;;;23.30;99.90;;;;;;4963153;28;20420;-83
2022/08/05 05:54:04;;;;;;;5.97;3.53;;;23.20;99.90;;;;;;5000287;28;20383;-83
2022/08/05 05:56:30;;;;;;;4.70;3.93;;;23.20;99.90;;;;;;4967839;28;21067;-84
2022/08/05 05:58:56;;;;;;;4.70;3.40;;;23.30;99.90;;;;;;4979757;28;20427;-85
2022/08/05 06:01:22;;;;;;;7.43;4.20;;;23.40;99.90;;;;;;4988191;28;20456;-85
2022/08/05 06:03:47;;;;;;;5.17;3.63;;;23.40;99.90;;;;;;4973603;28;20840;-82
2022/08/05 06:06:13;;;;;;;6.30;3.90;;;23.40;99.90;;;;;;4964021;28;20407;-83
2022/08/05 06:08:39;;;;;;;6.57;4.03;;;23.40;99.90;;;;;;4992404;28;20398;-84
2022/08/05 06:11:05;;;;;;;5.10;4.13;;;23.20;99.90;;;;;;5010151;28;20372;-82
2022/08/05 06:13:31;;;;;;;7.45;4.15;;;23.20;99.90;;;;;;5010019;28;20438;-83
2022/08/05 06:15:56;;;;;;;6.43;4.38;;;23.20;99.90;;;;;;5005127;28;20391;-82
2022/08/05 06:18:22;;;;;;;5.20;4.50;;;23.20;99.90;;;;;;5009868;28;20403;-85
2022/08/05 06:20:48;;;;;;;6.55;4.90;;;23.10;99.90;;;;;;4978271;28;20471;-83
2022/08/05 06:23:13;;;;;;;6.53;4.80;;;23.20;99.90;;;;;;4990770;28;20431;-83
2022/08/05 06:25:39;;;;;;;5.05;4.20;;;23.20;99.90;;;;;;4969430;28;20400;-85
2022/08/05 06:28:05;;;;;;;6.80;4.90;;;23.10;99.90;;;;;;4972477;28;20404;-84
2022/08/05 06:30:30;;;;;;;6.73;5.13;;;23.00;99.90;;;;;;4963566;28;20502;-84
2022/08/05 06:32:56;;;;;;;6.28;4.40;;;22.80;99.90;;;;;;4953409;28;20394;-84
2022/08/05 06:35:22;;;;;;;6.20;4.27;;;22.80;99.90;;;;;;4952481;28;20410;-83
2022/08/05 06:37:47;;;;;;;6.53;4.15;;;22.70;99.90;;;;;;4970828;28;20413;-84
2022/08/05 06:40:14;;;;;;;4.43;3.80;;;22.70;99.90;;;;;;4967004;28;20396;-84
2022/08/05 06:42:40;;;;;;;5.63;4.20;;;22.70;99.90;;;;;;4973812;28;20399;-84
2022/08/05 06:45:06;;;;;;;7.72;4.10;;;22.80;99.90;;;;;;4989878;28;20381;-85
2022/08/05 06:47:32;;;;;;;7.18;4.38;;;22.80;99.90;;;;;;4971153;28;20454;-84
2022/08/05 06:49:58;;;;;;;5.60;4.18;;;22.90;99.90;;;;;;4954125;28;20498;-84
2022/08/05 06:52:23;;;;;;;5.53;4.17;;;23.00;99.90;;;;;;4976127;28;20403;-83
2022/08/05 06:54:49;;;;;;;4.60;4.20;;;23.00;99.90;;;;;;4964169;28;20405;-84
2022/08/05 06:57:16;;;;;;;5.88;4.35;;;22.90;99.90;;;;;;4959139;28;20477;-85
2022/08/05 06:59:43;;;;;;;5.60;4.03;;;22.90;99.90;;;;;;4958767;28;20410;-84
2022/08/05 07:02:09;;;;;;;5.53;4.10;;;22.90;99.90;;;;;;4959667;28;20757;-83
2022/08/05 07:04:35;;;;;;;5.70;4.38;;;22.80;99.90;;;;;;4974657;28;20435;-84
2022/08/05 07:07:00;;;;;;;4.88;4.38;;;22.90;99.90;;;;;;4975998;28;20776;-84
2022/08/05 07:09:26;;;;;;;6.77;5.40;;;22.80;99.90;;;;;;4957194;28;20394;-83
2022/08/05 07:11:55;;;;;;;7.22;5.50;;;22.70;99.90;;;;;;4961644;28;20404;-85
2022/08/05 07:17:05;;;;;;;9.15;5.30;;;22.70;99.90;;;;;;4990983;28;21834;-84
2022/08/05 07:19:31;;;;;;;7.13;5.68;;;22.90;99.90;;;;;;4993950;28;20420;-85
2022/08/05 07:21:57;;;;;;;7.60;5.40;;;22.90;99.90;;;;;;4976508;28;20397;-84
2022/08/05 07:24:23;;;;;;;7.93;6.27;;;22.80;99.90;;;;;;4985917;28;20386;-84
2022/08/05 07:26:49;;;;;;;8.63;6.10;;;22.60;99.90;;;;;;4963816;28;20749;-84
2022/08/05 07:29:15;;;;;;;10.98;7.15;;;22.40;99.90;;;;;;5000530;28;20398;-83
2022/08/05 07:31:41;;;;;;;7.43;6.72;;;22.30;99.90;;;;;;4992842;28;20381;-84
2022/08/05 07:34:06;;;;;;;9.70;8.18;;;22.10;99.90;;;;;;4979737;28;20473;-83
2022/08/05 07:36:32;;;;;;;12.07;8.52;;;21.90;99.90;;;;;;4974323;28;20477;-83
2022/08/05 07:39:07;;;;;;;10.00;8.60;;;21.70;99.90;;;;;;4968604;28;21057;-84
2022/08/05 07:41:33;;;;;;;9.25;8.43;;;21.70;99.90;;;;;;4972367;28;20887;-83
2022/08/05 07:43:59;;;;;;;9.75;8.30;;;21.70;99.90;;;;;;4962930;28;20753;-83
2022/08/05 07:46:26;;;;;;;11.73;8.80;;;21.70;99.90;;;;;;4992608;28;20392;-82
2022/08/05 07:48:54;;;;;;;12.27;9.05;;;21.60;99.90;;;;;;4986726;28;20390;-82
2022/08/05 07:51:20;;;;;;;12.45;8.90;;;21.50;99.90;;;;;;4974380;28;20426;-83
2022/08/05 07:53:46;;;;;;;10.30;8.50;;;21.40;99.90;;;;;;4973215;28;20473;-84
2022/08/05 07:56:11;;;;;;;9.38;8.55;;;21.40;99.90;;;;;;4972739;28;20888;-82
2022/08/05 07:58:37;;;;;;;10.67;8.87;;;21.60;99.90;;;;;;4975645;28;20891;-83
2022/08/05 08:01:02;;;;;;;10.00;9.00;;;21.50;99.90;;;;;;4992410;28;20380;-83
2022/08/05 08:03:28;;;;;;;11.82;9.20;;;21.50;99.90;;;;;;4992727;28;20381;-83
2022/08/05 08:05:54;;;;;;;10.20;8.37;;;21.50;99.90;;;;;;4974690;28;20419;-84
2022/08/05 08:08:19;;;;;;;9.15;8.23;;;21.50;99.90;;;;;;4989315;28;20416;-83
2022/08/05 08:10:45;;;;;;;8.70;7.80;;;21.60;99.90;;;;;;4982346;28;20408;-83
2022/08/05 08:13:11;;;;;;;9.02;8.23;;;21.70;99.90;;;;;;4974376;28;20392;-84
2022/08/05 08:15:37;;;;;;;9.13;8.13;;;21.80;99.90;;;;;;4991413;28;20395;-83
2022/08/05 08:18:03;;;;;;;8.02;7.22;;;22.00;99.90;;;;;;4970505;28;20414;-84
2022/08/05 08:20:28;;;;;;;8.80;7.60;;;22.20;99.90;;;;;;4971876;28;21358;-84
2022/08/05 08:22:56;;;;;;;8.73;7.70;;;22.30;99.90;;;;;;4954631;28;20493;-85
2022/08/05 08:25:22;;;;;;;8.00;7.13;;;22.50;99.90;;;;;;4960615;28;20386;-84
2022/08/05 08:27:48;;;;;;;8.02;7.28;;;22.70;99.90;;;;;;4981385;28;20853;-82
2022/08/05 08:30:14;;;;;;;8.50;7.60;;;22.70;99.90;;;;;;4954616;28;20386;-84
2022/08/05 08:32:40;;;;;;;7.65;6.95;;;22.80;99.90;;;;;;4973002;28;20398;-84
2022/08/05 08:35:07;;;;;;;8.38;7.45;;;22.70;99.90;;;;;;4956610;28;20729;-84
2022/08/05 08:37:33;;;;;;;7.00;6.30;;;22.80;99.90;;;;;;4955354;28;20920;-83
2022/08/05 08:39:59;;;;;;;8.73;6.53;;;22.90;99.90;;;;;;4973141;28;20401;-85
2022/08/05 08:42:27;;;;;;;7.43;6.38;;;23.20;99.90;;;;;;4955586;28;20406;-85
2022/08/05 08:44:54;;;;;;;7.28;6.35;;;23.30;99.90;;;;;;4987745;28;20378;-85
2022/08/05 08:47:23;;;;;;;6.85;5.80;;;23.40;99.90;;;;;;4973617;28;20450;-85
2022/08/05 08:49:55;;;;;;;9.23;6.35;;;23.50;99.90;;;;;;4990982;28;20709;-85
2022/08/05 08:52:30;;;;;;;8.57;6.40;;;23.40;99.90;;;;;;4973235;28;20415;-86
2022/08/05 08:54:55;;;;;;;6.70;6.00;;;23.50;99.90;;;;;;4978745;28;20513;-85
2022/08/05 08:57:22;;;;;;;6.97;5.82;;;23.50;99.90;;;;;;4990755;28;20472;-85
2022/08/05 08:59:49;;;;;;;7.80;6.10;;;23.60;99.90;;;;;;4989084;28;20410;-84
2022/08/05 09:02:17;;;;;;;7.57;6.30;;;23.60;99.90;;;;;;4988697;28;20409;-84
2022/08/05 09:04:44;;;;;;;7.53;6.47;;;23.70;99.90;;;;;;4991229;28;20529;-85
2022/08/05 09:07:09;;;;;;;7.68;6.88;;;23.70;99.90;;;;;;4985326;28;20850;-85
2022/08/05 09:09:36;;;;;;;7.55;6.22;;;23.80;99.90;;;;;;4981890;28;20400;-84
2022/08/05 09:12:04;;;;;;;6.72;6.13;;;23.80;99.90;;;;;;4971848;28;20806;-84
2022/08/05 09:14:34;;;;;;;5.38;4.97;;;24.00;99.90;;;;;;4972941;28;20399;-84
2022/08/05 09:17:04;;;;;;;5.53;5.00;;;24.10;99.90;;;;;;4988822;28;20443;-84
2022/08/05 09:19:30;;;;;;;7.03;6.03;;;24.20;99.90;;;;;;4972776;28;20420;-84
2022/08/05 09:21:55;;;;;;;6.32;5.70;;;24.20;99.90;;;;;;4972673;28;20380;-84
2022/08/05 09:24:21;;;;;;;7.53;5.33;;;24.20;99.90;;;;;;4966901;28;20426;-85
2022/08/05 09:26:49;;;;;;;6.43;5.65;;;24.10;99.90;;;;;;4953436;28;20482;-84
2022/08/05 09:29:16;;;;;;;7.20;6.43;;;24.00;99.90;;;;;;4971198;28;20387;-83
2022/08/05 09:31:44;;;;;;;7.45;6.30;;;23.80;99.90;;;;;;4961060;28;20764;-81
2022/08/05 09:34:11;;;;;;;8.18;7.07;;;23.70;99.90;;;;;;4978012;28;20389;-83
2022/08/05 09:36:42;;;;;;;6.68;6.07;;;23.50;99.90;;;;;;4973075;28;20755;-84
2022/08/05 09:39:12;;;;;;;6.68;6.00;;;23.40;99.90;;;;;;4965949;28;20421;-83
2022/08/05 09:42:02;;;;;;;6.88;6.28;;;23.50;99.90;;;;;;4992156;28;20478;-84
2022/08/05 09:44:40;;;;;;;6.90;6.20;;;23.60;99.90;;;;;;5003376;28;20399;-83
2022/08/05 09:47:15;;;;;;;6.88;6.18;;;23.70;99.90;;;;;;4990461;28;20410;-84
2022/08/05 09:49:50;;;;;;;7.53;6.53;;;23.80;99.90;;;;;;5004244;28;20459;-83
2022/08/05 09:52:35;;;;;;;6.65;6.05;;;23.70;99.90;;;;;;4983412;28;20406;-84
2022/08/05 09:55:06;;;;;;;7.63;6.78;;;23.70;99.90;;;;;;4979624;28;20391;-84
2022/08/05 09:57:35;;;;;;;8.93;6.90;;;23.80;99.90;;;;;;4971446;28;20943;-83
2022/08/05 10:00:08;;;;;;;7.40;6.63;;;23.70;99.90;;;;;;4964437;28;20467;-84
2022/08/05 10:02:40;;;;;;;6.60;5.97;;;23.80;99.90;;;;;;4955441;28;20461;-84
2022/08/05 10:05:12;;;;;;;7.13;6.33;;;24.10;99.90;;;;;;4959635;28;20908;-85
2022/08/05 10:07:46;;;;;;;8.13;7.30;;;24.40;99.90;;;;;;4973823;28;21325;-84
2022/08/05 10:10:12;;;;;;;8.55;7.13;;;24.60;99.90;;;;;;4961977;28;20458;-85
2022/08/05 10:12:51;;;;;;;5.97;5.38;;;24.90;99.90;;;;;;4973274;28;20386;-83
2022/08/05 10:15:25;;;;;;;6.93;5.93;;;25.00;99.90;;;;;;4977314;28;20383;-85
2022/08/05 10:18:14;;;;;;;6.85;5.78;;;25.10;99.90;;;;;;4974850;28;20391;-82
2022/08/05 10:20:51;;;;;;;7.30;6.57;;;25.10;99.90;;;;;;4976036;28;20375;-84
2022/08/05 10:23:29;;;;;;;8.57;6.43;;;24.90;99.90;;;;;;4987258;28;20393;-84
2022/08/05 10:25:59;;;;;;;7.70;6.78;;;25.00;99.90;;;;;;4994116;28;20484;-85
2022/08/05 10:28:26;;;;;;;8.93;6.75;;;25.20;99.90;;;;;;4969174;28;20438;-85
2022/08/05 10:30:52;;;;;;;8.50;6.10;;;25.40;99.90;;;;;;4977577;28;20508;-84
2022/08/05 10:33:22;;;;;;;7.95;6.55;;;25.50;99.90;;;;;;4997872;28;20384;-83
2022/08/05 10:35:49;;;;;;;6.10;5.32;;;25.70;99.90;;;;;;4993592;28;20513;-84
2022/08/05 10:38:18;;;;;;;5.05;4.55;;;25.90;99.90;;;;;;4975298;28;20750;-85
2022/08/05 10:40:53;;;;;;;5.80;5.20;;;25.90;99.90;;;;;;4974759;28;20951;-84
2022/08/05 10:43:43;;;;;;;7.18;4.57;;;25.80;99.90;;;;;;4956745;28;20398;-84
2022/08/05 10:46:15;;;;;;;7.30;4.90;;;25.80;99.90;;;;;;4960012;28;20394;-84
2022/08/05 10:48:43;;;;;;;5.30;4.70;;;26.00;99.90;;;;;;4995968;28;20431;-82
2022/08/05 10:51:14;;;;;;;6.53;5.40;;;26.00;99.90;;;;;;4995682;28;20380;-85
2022/08/05 10:53:55;;;;;;;5.68;5.18;;;25.90;99.90;;;;;;4966081;28;20398;-82
2022/08/05 10:56:22;;;;;;;5.22;4.72;;;25.80;99.90;;;;;;4989238;28;20443;-83
2022/08/05 10:58:49;;;;;;;4.50;4.10;;;25.90;99.90;;;;;;4981547;28;20414;-83
2022/08/05 11:01:15;;;;;;;4.88;4.35;;;26.20;99.90;;;;;;4957667;28;20394;-84
2022/08/05 11:04:00;;;;;;;5.82;4.60;;;26.50;99.90;;;;;;4973935;28;20390;-83
2022/08/05 11:06:26;;;;;;;5.85;4.68;;;26.70;99.90;;;;;;4955834;28;20449;-83
2022/08/05 11:09:17;;;;;;;4.97;3.85;;;26.80;99.90;;;;;;4955451;28;20406;-83
2022/08/05 11:11:45;;;;;;;4.18;3.78;;;26.80;99.90;;;;;;4974780;28;20478;-84
2022/08/05 11:14:12;;;;;;;5.30;3.83;;;26.90;99.90;;;;;;4956825;28;20843;-83
2022/08/05 11:16:38;;;;;;;5.25;4.35;;;26.80;99.90;;;;;;4973241;28;20461;-83
2022/08/05 11:19:24;;;;;;;6.22;4.38;;;26.70;99.90;;;;;;4973131;28;20486;-85
2022/08/05 11:21:49;;;;;;;4.18;3.78;;;26.70;99.90;;;;;;4972755;28;20880;-84
2022/08/05 11:24:15;;;;;;;4.83;3.63;;;26.80;99.90;;;;;;4973487;28;20461;-82
2022/08/05 11:26:41;;;;;;;5.45;3.20;;;26.90;99.90;;;;;;4972904;28;20391;-83
2022/08/05 11:29:27;;;;;;;4.47;3.40;;;27.10;99.90;;;;;;4956133;28;20442;-84
2022/08/05 11:32:24;;;;;;;4.15;3.00;;;27.40;99.90;;;;;;4973298;28;20390;-83
2022/08/05 11:34:49;;;;;;;3.20;2.90;;;27.80;99.90;;;;;;4955716;28;20393;-84
2022/08/05 11:37:42;;;;;;;3.38;2.88;;;27.80;99.90;;;;;;4972264;28;20398;-85
2022/08/05 11:40:08;;;;;;;3.97;2.70;;;28.00;99.90;;;;;;4973030;28;20413;-85
2022/08/05 11:42:37;;;;;;;3.90;3.08;;;28.10;99.90;;;;;;4956026;28;20429;-84
2022/08/05 11:45:04;;;;;;;3.70;2.75;;;28.10;99.90;;;;;;4955475;28;20382;-84
2022/08/05 11:47:34;;;;;;;4.82;3.05;;;27.90;99.90;;;;;;4984982;28;20424;-85
2022/08/05 11:49:59;;;;;;;4.90;2.75;;;27.90;99.90;;;;;;4978795;28;20407;-84
2022/08/05 11:52:28;;;;;;;3.10;2.80;;;28.00;99.90;;;;;;4974929;28;20476;-83
2022/08/05 11:54:54;;;;;;;4.15;2.90;;;28.30;99.90;;;;;;4974603;28;20381;-85
2022/08/05 11:57:20;;;;;;;4.38;2.83;;;28.40;99.90;;;;;;4992378;28;20385;-85
2022/08/05 11:59:46;;;;;;;5.57;2.83;;;28.30;99.90;;;;;;4993043;28;20428;-85
2022/08/05 12:02:11;;;;;;;4.00;2.97;;;28.40;99.90;;;;;;4975883;28;20396;-82
2022/08/05 12:04:38;;;;;;;3.60;3.00;;;28.30;99.90;;;;;;4973525;28;20404;-85
2022/08/05 12:07:06;;;;;;;4.30;2.83;;;28.30;99.90;;;;;;4974604;28;20385;-85
2022/08/05 12:09:39;;;;;;;4.13;2.53;;;28.50;99.90;;;;;;4975359;28;20397;-83
2022/08/05 12:12:06;;;;;;;4.70;3.17;;;28.60;99.90;;;;;;4975727;28;20476;-83
2022/08/05 12:14:41;;;;;;;4.22;3.00;;;28.50;99.90;;;;;;4992371;28;20393;-84
2022/08/05 12:17:12;;;;;;;3.47;2.90;;;28.60;99.90;;;;;;4974933;28;20480;-84
2022/08/05 12:19:46;;;;;;;5.45;3.10;;;28.90;99.90;;;;;;4989744;28;20436;-84
2022/08/05 12:22:14;;;;;;;5.50;3.13;;;29.40;99.90;;;;;;4975075;28;20486;-85
2022/08/05 12:24:43;;;;;;;2.75;2.53;;;29.60;99.90;;;;;;4981907;28;20930;-84
2022/08/05 12:27:09;;;;;;;3.47;2.50;;;29.80;99.90;;;;;;4960648;28;20383;-84
2022/08/05 12:29:35;;;;;;;3.90;2.72;;;30.20;99.90;;;;;;4956350;28;20753;-85
2022/08/05 12:32:00;;;;;;;3.90;2.90;;;30.30;99.90;;;;;;4974673;28;20374;-84
2022/08/05 12:34:35;;;;;;;3.47;2.70;;;30.10;99.90;;;;;;4966997;28;20423;-84
2022/08/05 12:37:11;;;;;;;3.80;2.70;;;30.10;99.90;;;;;;4971931;28;20388;-82
2022/08/05 12:39:39;;;;;;;3.17;2.55;;;30.10;99.90;;;;;;4960558;28;20421;-84
2022/08/05 12:42:10;;;;;;;3.75;2.78;;;30.00;99.90;;;;;;4956707;28;20374;-84
2022/08/05 12:44:36;;;;;;;5.65;3.10;;;29.70;99.90;;;;;;4955529;28;20749;-85
2022/08/05 12:47:03;;;;;;;4.28;3.40;;;29.20;99.90;;;;;;4959038;28;20482;-81
2022/08/05 12:49:40;;;;;;;5.22;3.05;;;28.60;99.90;;;;;;4991214;28;20407;-84
2022/08/05 12:52:13;;;;;;;3.90;3.28;;;28.20;99.90;;;;;;4992984;28;20385;-82
2022/08/05 12:54:40;;;;;;;6.17;3.30;;;27.90;99.90;;;;;;4993922;28;20796;-84